"WATCHING THE WEATHER TO PROTECT LIFE AND PROPERTY"


Aviation
Satellite (InfraRed)


TNCA 191200Z 08010KT 9999 FEW018 26/22 Q1013 A2994 NOSIG
TNCB 191155Z 07010KT 040V100 9999 SCT020 26/22 Q1013
TNCC 191200Z 09012KT 9999 FEW018 26/21 Q1014 NOSIG
TNCM 191100Z 06003KT 9999 FEW020 22/19 Q1015 A2999 NOSIG